Main page
METAR-TAF:

METAR-TAF

Airports :

Payam International Airport

Karaj, Iran

latitude: 35-46-34N, longitude: 050-49-36E, elevation: 1271 m

Current weather observation

The report was made 18 minutes ago, at 14:00 UTC
Wind 14 kt from the East/Southeast
Temperature 38°C
Humidity 10%
Pressure 1005 hPa
Visibility 10 km or more
no clouds below 1500 m and no cumulonimbus

METAR: OIIP 181400Z 12014KT CAVOK 38/01 Q1005

Time: 18:48 (14:18 UTC)


TAF: missing

Weather observations and forecasts of more than 4000 airports (METAR and TAF reports).

The available stations are represented by yellow and red dots on the map.

Hover mouse over dot to see the name of the station.

Then click to see weather observations and forecasts.

To change the map : click on the green buttons with a black cross to zoom in, on the green button with a dash to zoom out, or on the green arrows for adjacent maps.


METAR-TAF: